sensor_id;sensor_type;location;lat;lon;timestamp;temperature;humidity
52435;DHT22;38354;52.892;6.148;2022-07-29T05:11:17;14.80;99.90
52435;DHT22;38354;52.892;6.148;2022-07-29T05:13:43;14.80;99.90
52435;DHT22;38354;52.892;6.148;2022-07-29T05:16:10;14.80;99.90
52435;DHT22;38354;52.892;6.148;2022-07-29T05:18:36;14.80;99.90
52435;DHT22;38354;52.892;6.148;2022-07-29T05:21:02;14.80;99.90
52435;DHT22;38354;52.892;6.148;2022-07-29T05:23:28;14.80;99.90
52435;DHT22;38354;52.892;6.148;2022-07-29T05:25:53;14.80;99.90
52435;DHT22;38354;52.892;6.148;2022-07-29T05:28:19;14.80;99.90
52435;DHT22;38354;52.892;6.148;2022-07-29T05:30:45;14.80;99.90
52435;DHT22;38354;52.892;6.148;2022-07-29T05:33:11;14.90;99.90
52435;DHT22;38354;52.892;6.148;2022-07-29T05:35:36;14.90;99.90
52435;DHT22;38354;52.892;6.148;2022-07-29T05:38:03;14.90;99.90
52435;DHT22;38354;52.892;6.148;2022-07-29T05:40:29;14.90;99.90
52435;DHT22;38354;52.892;6.148;2022-07-29T05:42:55;14.90;99.90
52435;DHT22;38354;52.892;6.148;2022-07-29T05:45:21;14.90;99.90
52435;DHT22;38354;52.892;6.148;2022-07-29T05:47:46;15.00;99.90
52435;DHT22;38354;52.892;6.148;2022-07-29T05:50:12;15.00;99.90
52435;DHT22;38354;52.892;6.148;2022-07-29T05:52:38;15.00;99.90
52435;DHT22;38354;52.892;6.148;2022-07-29T05:55:04;15.10;99.90
52435;DHT22;38354;52.892;6.148;2022-07-29T05:57:31;15.10;99.90
52435;DHT22;38354;52.892;6.148;2022-07-29T05:59:57;15.10;99.90
52435;DHT22;38354;52.892;6.148;2022-07-29T06:02:23;15.20;99.90
52435;DHT22;38354;52.892;6.148;2022-07-29T06:04:48;15.20;99.90
52435;DHT22;38354;52.892;6.148;2022-07-29T06:07:15;15.20;99.90
52435;DHT22;38354;52.892;6.148;2022-07-29T06:09:42;15.30;99.90
52435;DHT22;38354;52.892;6.148;2022-07-29T06:12:08;15.30;99.90
52435;DHT22;38354;52.892;6.148;2022-07-29T06:14:34;15.40;99.90
52435;DHT22;38354;52.892;6.148;2022-07-29T06:17:00;15.40;99.90
52435;DHT22;38354;52.892;6.148;2022-07-29T06:19:27;15.50;99.90
52435;DHT22;38354;52.892;6.148;2022-07-29T06:21:52;15.50;99.90
52435;DHT22;38354;52.892;6.148;2022-07-29T06:24:18;15.60;99.90
52435;DHT22;38354;52.892;6.148;2022-07-29T06:26:44;15.70;99.90
52435;DHT22;38354;52.892;6.148;2022-07-29T06:29:10;15.70;99.90
52435;DHT22;38354;52.892;6.148;2022-07-29T06:31:36;15.80;99.90
52435;DHT22;38354;52.892;6.148;2022-07-29T06:34:07;15.80;99.90
52435;DHT22;38354;52.892;6.148;2022-07-29T06:36:37;15.90;99.90
52435;DHT22;38354;52.892;6.148;2022-07-29T06:39:06;15.90;99.90
52435;DHT22;38354;52.892;6.148;2022-07-29T06:41:33;15.90;99.90
52435;DHT22;38354;52.892;6.148;2022-07-29T06:43:58;16.00;99.90
52435;DHT22;38354;52.892;6.148;2022-07-29T06:46:24;16.00;99.90
52435;DHT22;38354;52.892;6.148;2022-07-29T06:48:51;16.10;99.90
52435;DHT22;38354;52.892;6.148;2022-07-29T06:51:17;16.00;99.90
52435;DHT22;38354;52.892;6.148;2022-07-29T06:53:42;16.10;99.90
52435;DHT22;38354;52.892;6.148;2022-07-29T06:56:08;16.10;99.90
52435;DHT22;38354;52.892;6.148;2022-07-29T06:58:35;16.20;99.90
52435;DHT22;38354;52.892;6.148;2022-07-29T07:01:02;16.20;99.90
52435;DHT22;38354;52.892;6.148;2022-07-29T07:03:29;16.30;99.90
52435;DHT22;38354;52.892;6.148;2022-07-29T07:05:55;16.30;99.90
52435;DHT22;38354;52.892;6.148;2022-07-29T07:08:21;16.40;99.90
52435;DHT22;38354;52.892;6.148;2022-07-29T07:10:48;16.40;99.90
52435;DHT22;38354;52.892;6.148;2022-07-29T07:13:14;16.40;99.90
52435;DHT22;38354;52.892;6.148;2022-07-29T07:15:40;16.50;99.90
52435;DHT22;38354;52.892;6.148;2022-07-29T07:18:06;16.50;99.90
52435;DHT22;38354;52.892;6.148;2022-07-29T07:29:45;16.40;99.90
52435;DHT22;38354;52.892;6.148;2022-07-29T07:32:10;16.50;99.90
52435;DHT22;38354;52.892;6.148;2022-07-29T07:34:38;16.40;99.90
52435;DHT22;38354;52.892;6.148;2022-07-29T07:37:07;16.40;99.90
52435;DHT22;38354;52.892;6.148;2022-07-29T07:39:49;16.40;99.90
52435;DHT22;38354;52.892;6.148;2022-07-29T07:42:15;16.30;99.90
52435;DHT22;38354;52.892;6.148;2022-07-29T07:44:40;16.30;99.90
52435;DHT22;38354;52.892;6.148;2022-07-29T07:47:06;16.30;99.90
52435;DHT22;38354;52.892;6.148;2022-07-29T07:49:32;16.30;99.90
52435;DHT22;38354;52.892;6.148;2022-07-29T07:51:57;16.30;99.90
52435;DHT22;38354;52.892;6.148;2022-07-29T07:54:23;16.30;99.90
52435;DHT22;38354;52.892;6.148;2022-07-29T07:56:49;16.20;99.90
52435;DHT22;38354;52.892;6.148;2022-07-29T07:59:16;16.20;99.90
52435;DHT22;38354;52.892;6.148;2022-07-29T08:01:42;16.10;99.90
52435;DHT22;38354;52.892;6.148;2022-07-29T08:04:08;16.10;99.90
52435;DHT22;38354;52.892;6.148;2022-07-29T08:06:34;16.10;99.90
52435;DHT22;38354;52.892;6.148;2022-07-29T08:09:03;16.10;99.90
52435;DHT22;38354;52.892;6.148;2022-07-29T08:11:29;16.10;99.90
52435;DHT22;38354;52.892;6.148;2022-07-29T08:13:55;16.10;99.90
52435;DHT22;38354;52.892;6.148;2022-07-29T08:16:21;16.10;99.90
52435;DHT22;38354;52.892;6.148;2022-07-29T08:18:47;16.10;99.90
52435;DHT22;38354;52.892;6.148;2022-07-29T08:21:14;16.10;99.90
52435;DHT22;38354;52.892;6.148;2022-07-29T08:23:41;16.10;99.90
52435;DHT22;38354;52.892;6.148;2022-07-29T08:26:15;16.10;99.90
52435;DHT22;38354;52.892;6.148;2022-07-29T08:28:43;16.10;99.90
52435;DHT22;38354;52.892;6.148;2022-07-29T08:31:12;16.20;99.90
52435;DHT22;38354;52.892;6.148;2022-07-29T08:33:38;16.20;99.90
52435;DHT22;38354;52.892;6.148;2022-07-29T08:36:05;16.30;99.90
52435;DHT22;38354;52.892;6.148;2022-07-29T08:38:32;16.30;99.90
52435;DHT22;38354;52.892;6.148;2022-07-29T08:40:59;16.40;99.90
52435;DHT22;38354;52.892;6.148;2022-07-29T08:43:25;16.50;99.90
52435;DHT22;38354;52.892;6.148;2022-07-29T08:45:51;16.50;99.90
52435;DHT22;38354;52.892;6.148;2022-07-29T08:48:19;16.60;99.90
52435;DHT22;38354;52.892;6.148;2022-07-29T08:50:47;16.70;99.90
52435;DHT22;38354;52.892;6.148;2022-07-29T08:53:17;16.80;99.90
52435;DHT22;38354;52.892;6.148;2022-07-29T08:58:46;17.00;99.90
52435;DHT22;38354;52.892;6.148;2022-07-29T09:01:14;17.10;99.90
52435;DHT22;38354;52.892;6.148;2022-07-29T09:04:25;17.20;99.90
52435;DHT22;38354;52.892;6.148;2022-07-29T09:06:57;17.30;99.90
52435;DHT22;38354;52.892;6.148;2022-07-29T09:12:05;17.50;99.90
52435;DHT22;38354;52.892;6.148;2022-07-29T09:14:34;17.60;99.90
52435;DHT22;38354;52.892;6.148;2022-07-29T09:16:59;17.80;99.90
52435;DHT22;38354;52.892;6.148;2022-07-29T09:19:32;17.80;99.90
52435;DHT22;38354;52.892;6.148;2022-07-29T09:22:02;17.90;99.90
52435;DHT22;38354;52.892;6.148;2022-07-29T09:27:00;17.90;99.90
52435;DHT22;38354;52.892;6.148;2022-07-29T09:29:27;18.00;99.90
52435;DHT22;38354;52.892;6.148;2022-07-29T09:31:54;18.00;99.90
52435;DHT22;38354;52.892;6.148;2022-07-29T09:34:28;18.00;99.90
52435;DHT22;38354;52.892;6.148;2022-07-29T09:36:56;18.00;99.90
52435;DHT22;38354;52.892;6.148;2022-07-29T09:39:38;18.00;99.90
52435;DHT22;38354;52.892;6.148;2022-07-29T09:42:11;18.10;99.90
52435;DHT22;38354;52.892;6.148;2022-07-29T09:44:50;18.00;99.90
52435;DHT22;38354;52.892;6.148;2022-07-29T09:47:17;18.00;99.90
52435;DHT22;38354;52.892;6.148;2022-07-29T09:49:54;18.00;99.90
52435;DHT22;38354;52.892;6.148;2022-07-29T09:52:23;18.10;99.90
52435;DHT22;38354;52.892;6.148;2022-07-29T09:54:49;18.10;99.90
52435;DHT22;38354;52.892;6.148;2022-07-29T09:57:28;18.20;99.90
52435;DHT22;38354;52.892;6.148;2022-07-29T09:59:59;18.30;99.90
52435;DHT22;38354;52.892;6.148;2022-07-29T10:02:33;18.40;99.90
52435;DHT22;38354;52.892;6.148;2022-07-29T10:05:00;18.70;99.90
52435;DHT22;38354;52.892;6.148;2022-07-29T10:07:28;19.00;99.90
52435;DHT22;38354;52.892;6.148;2022-07-29T10:10:07;19.30;99.90
52435;DHT22;38354;52.892;6.148;2022-07-29T10:12:33;19.50;99.90
52435;DHT22;38354;52.892;6.148;2022-07-29T10:15:01;19.60;99.90
52435;DHT22;38354;52.892;6.148;2022-07-29T10:17:27;19.70;99.90
52435;DHT22;38354;52.892;6.148;2022-07-29T10:19:53;19.90;99.90
52435;DHT22;38354;52.892;6.148;2022-07-29T10:22:19;20.30;99.90
52435;DHT22;38354;52.892;6.148;2022-07-29T10:24:48;20.70;99.90
52435;DHT22;38354;52.892;6.148;2022-07-29T10:27:14;20.90;99.90
52435;DHT22;38354;52.892;6.148;2022-07-29T10:29:39;21.10;99.90
52435;DHT22;38354;52.892;6.148;2022-07-29T10:35:04;21.10;99.90
52435;DHT22;38354;52.892;6.148;2022-07-29T10:45:59;21.10;99.90
52435;DHT22;38354;52.892;6.148;2022-07-29T10:48:25;21.20;99.90
52435;DHT22;38354;52.892;6.148;2022-07-29T10:51:02;21.20;99.90
52435;DHT22;38354;52.892;6.148;2022-07-29T10:53:47;21.30;99.90
52435;DHT22;38354;52.892;6.148;2022-07-29T10:56:32;21.30;99.90
52435;DHT22;38354;52.892;6.148;2022-07-29T11:01:49;21.60;99.90
52435;DHT22;38354;52.892;6.148;2022-07-29T11:05:19;21.70;99.90
52435;DHT22;38354;52.892;6.148;2022-07-29T11:07:32;21.90;99.90
52435;DHT22;38354;52.892;6.148;2022-07-29T11:15:09;22.00;99.90
52435;DHT22;38354;52.892;6.148;2022-07-29T11:20:41;22.00;99.90
52435;DHT22;38354;52.892;6.148;2022-07-29T11:23:27;22.20;99.90
52435;DHT22;38354;52.892;6.148;2022-07-29T11:29:12;22.30;99.90
52435;DHT22;38354;52.892;6.148;2022-07-29T11:31:45;22.40;99.90
52435;DHT22;38354;52.892;6.148;2022-07-29T11:34:17;22.50;99.90
52435;DHT22;38354;52.892;6.148;2022-07-29T11:37:19;22.60;99.90
52435;DHT22;38354;52.892;6.148;2022-07-29T11:40:07;22.80;99.90
52435;DHT22;38354;52.892;6.148;2022-07-29T11:45:11;23.10;99.90
52435;DHT22;38354;52.892;6.148;2022-07-29T11:50:15;23.40;99.90
52435;DHT22;38354;52.892;6.148;2022-07-29T11:52:47;23.50;99.90
52435;DHT22;38354;52.892;6.148;2022-07-29T11:55:18;23.50;99.90
52435;DHT22;38354;52.892;6.148;2022-07-29T11:57:56;23.70;99.90
52435;DHT22;38354;52.892;6.148;2022-07-29T12:00:24;23.90;99.90
52435;DHT22;38354;52.892;6.148;2022-07-29T12:02:51;24.00;99.90
52435;DHT22;38354;52.892;6.148;2022-07-29T12:05:17;24.20;99.90
52435;DHT22;38354;52.892;6.148;2022-07-29T12:07:43;24.40;99.90
52435;DHT22;38354;52.892;6.148;2022-07-29T12:10:09;24.30;99.90
52435;DHT22;38354;52.892;6.148;2022-07-29T12:12:35;24.50;99.90
52435;DHT22;38354;52.892;6.148;2022-07-29T12:15:12;24.50;99.90
52435;DHT22;38354;52.892;6.148;2022-07-29T12:17:38;24.40;99.90
52435;DHT22;38354;52.892;6.148;2022-07-29T12:20:06;24.40;99.90
52435;DHT22;38354;52.892;6.148;2022-07-29T12:22:37;24.30;99.90
52435;DHT22;38354;52.892;6.148;2022-07-29T12:25:08;24.20;99.90
52435;DHT22;38354;52.892;6.148;2022-07-29T12:27:35;24.10;99.90
52435;DHT22;38354;52.892;6.148;2022-07-29T12:30:07;24.10;99.90
52435;DHT22;38354;52.892;6.148;2022-07-29T12:32:43;24.10;99.90
52435;DHT22;38354;52.892;6.148;2022-07-29T12:35:14;24.00;99.90
52435;DHT22;38354;52.892;6.148;2022-07-29T12:37:43;24.00;99.90
52435;DHT22;38354;52.892;6.148;2022-07-29T12:40:11;24.00;99.90
52435;DHT22;38354;52.892;6.148;2022-07-29T12:42:39;24.10;99.90
52435;DHT22;38354;52.892;6.148;2022-07-29T12:45:05;24.40;99.90
52435;DHT22;38354;52.892;6.148;2022-07-29T12:47:31;24.70;99.90
52435;DHT22;38354;52.892;6.148;2022-07-29T12:50:15;24.90;99.90
52435;DHT22;38354;52.892;6.148;2022-07-29T12:52:43;25.30;99.90
52435;DHT22;38354;52.892;6.148;2022-07-29T12:55:10;25.20;99.90
52435;DHT22;38354;52.892;6.148;2022-07-29T12:58:05;25.20;99.90
52435;DHT22;38354;52.892;6.148;2022-07-29T13:00:30;25.30;99.90
52435;DHT22;38354;52.892;6.148;2022-07-29T13:02:58;25.40;99.90
52435;DHT22;38354;52.892;6.148;2022-07-29T13:05:39;25.50;99.90
52435;DHT22;38354;52.892;6.148;2022-07-29T13:08:15;25.70;99.90
52435;DHT22;38354;52.892;6.148;2022-07-29T13:10:42;25.90;99.90
52435;DHT22;38354;52.892;6.148;2022-07-29T13:13:10;26.00;99.40
52435;DHT22;38354;52.892;6.148;2022-07-29T13:15:38;26.00;99.50
52435;DHT22;38354;52.892;6.148;2022-07-29T13:18:05;26.10;99.70
52435;DHT22;38354;52.892;6.148;2022-07-29T13:20:31;26.10;98.80
52435;DHT22;38354;52.892;6.148;2022-07-29T13:22:59;26.00;98.30
52435;DHT22;38354;52.892;6.148;2022-07-29T13:25:30;26.10;98.30
52435;DHT22;38354;52.892;6.148;2022-07-29T13:27:57;25.90;97.20
52435;DHT22;38354;52.892;6.148;2022-07-29T13:30:26;25.70;97.00
52435;DHT22;38354;52.892;6.148;2022-07-29T13:32:52;25.40;97.30
52435;DHT22;38354;52.892;6.148;2022-07-29T13:35:18;25.20;97.50
52435;DHT22;38354;52.892;6.148;2022-07-29T13:37:45;25.10;97.70
52435;DHT22;38354;52.892;6.148;2022-07-29T13:40:11;25.10;98.00
52435;DHT22;38354;52.892;6.148;2022-07-29T13:42:37;25.20;98.50
52435;DHT22;38354;52.892;6.148;2022-07-29T13:45:04;25.30;98.40
52435;DHT22;38354;52.892;6.148;2022-07-29T13:47:30;25.50;98.70
52435;DHT22;38354;52.892;6.148;2022-07-29T13:49:56;25.60;98.10
52435;DHT22;38354;52.892;6.148;2022-07-29T13:52:21;25.60;97.90
52435;DHT22;38354;52.892;6.148;2022-07-29T13:54:47;25.70;98.50
52435;DHT22;38354;52.892;6.148;2022-07-29T13:57:13;25.70;97.90
52435;DHT22;38354;52.892;6.148;2022-07-29T13:59:43;25.90;98.80
52435;DHT22;38354;52.892;6.148;2022-07-29T14:02:10;26.00;99.40
52435;DHT22;38354;52.892;6.148;2022-07-29T14:04:36;26.20;98.50
52435;DHT22;38354;52.892;6.148;2022-07-29T14:07:02;26.30;98.00
52435;DHT22;38354;52.892;6.148;2022-07-29T14:09:28;26.40;96.70
52435;DHT22;38354;52.892;6.148;2022-07-29T14:11:54;26.40;95.20
52435;DHT22;38354;52.892;6.148;2022-07-29T14:14:20;26.40;94.50
52435;DHT22;38354;52.892;6.148;2022-07-29T14:16:46;26.40;93.60
52435;DHT22;38354;52.892;6.148;2022-07-29T14:19:12;26.40;93.40
52435;DHT22;38354;52.892;6.148;2022-07-29T14:21:38;26.40;92.40
52435;DHT22;38354;52.892;6.148;2022-07-29T14:24:04;26.40;92.20
52435;DHT22;38354;52.892;6.148;2022-07-29T14:26:30;26.30;91.70
52435;DHT22;38354;52.892;6.148;2022-07-29T14:28:56;26.20;91.70
52435;DHT22;38354;52.892;6.148;2022-07-29T14:31:22;26.20;91.80
52435;DHT22;38354;52.892;6.148;2022-07-29T14:33:48;26.10;91.50
52435;DHT22;38354;52.892;6.148;2022-07-29T14:36:13;26.10;91.50
52435;DHT22;38354;52.892;6.148;2022-07-29T14:38:39;26.10;91.60
52435;DHT22;38354;52.892;6.148;2022-07-29T14:41:06;26.20;92.60
52435;DHT22;38354;52.892;6.148;2022-07-29T14:43:33;26.20;93.00
52435;DHT22;38354;52.892;6.148;2022-07-29T14:46:00;26.20;93.00
52435;DHT22;38354;52.892;6.148;2022-07-29T14:48:26;26.30;93.40
52435;DHT22;38354;52.892;6.148;2022-07-29T14:50:52;26.40;93.20
52435;DHT22;38354;52.892;6.148;2022-07-29T14:53:18;26.40;92.70
52435;DHT22;38354;52.892;6.148;2022-07-29T14:55:44;26.30;92.30
52435;DHT22;38354;52.892;6.148;2022-07-29T14:58:09;26.20;92.70
52435;DHT22;38354;52.892;6.148;2022-07-29T15:00:35;26.10;92.40
52435;DHT22;38354;52.892;6.148;2022-07-29T15:03:03;25.80;92.70
52435;DHT22;38354;52.892;6.148;2022-07-29T15:05:30;25.60;93.40
52435;DHT22;38354;52.892;6.148;2022-07-29T15:07:57;25.40;93.30
52435;DHT22;38354;52.892;6.148;2022-07-29T15:10:22;25.20;93.70
52435;DHT22;38354;52.892;6.148;2022-07-29T15:12:48;25.20;94.60
52435;DHT22;38354;52.892;6.148;2022-07-29T15:15:13;25.40;94.60
52435;DHT22;38354;52.892;6.148;2022-07-29T15:17:39;25.60;94.30
52435;DHT22;38354;52.892;6.148;2022-07-29T15:20:06;25.70;93.70
52435;DHT22;38354;52.892;6.148;2022-07-29T15:22:31;25.80;93.70
52435;DHT22;38354;52.892;6.148;2022-07-29T15:24:57;25.80;93.70
52435;DHT22;38354;52.892;6.148;2022-07-29T15:27:23;25.90;93.70
52435;DHT22;38354;52.892;6.148;2022-07-29T15:29:48;25.90;93.90
52435;DHT22;38354;52.892;6.148;2022-07-29T15:32:14;26.00;93.30
52435;DHT22;38354;52.892;6.148;2022-07-29T15:34:40;26.00;93.50
52435;DHT22;38354;52.892;6.148;2022-07-29T15:37:06;25.90;93.40
52435;DHT22;38354;52.892;6.148;2022-07-29T15:39:31;25.90;93.40
52435;DHT22;38354;52.892;6.148;2022-07-29T15:41:57;25.90;93.60
52435;DHT22;38354;52.892;6.148;2022-07-29T15:44:25;26.00;94.40
52435;DHT22;38354;52.892;6.148;2022-07-29T15:46:51;26.10;92.20
52435;DHT22;38354;52.892;6.148;2022-07-29T15:49:40;26.20;91.60
52435;DHT22;38354;52.892;6.148;2022-07-29T15:52:17;26.10;91.20
52435;DHT22;38354;52.892;6.148;2022-07-29T15:54:44;26.20;92.20
52435;DHT22;38354;52.892;6.148;2022-07-29T15:57:10;26.20;91.50
52435;DHT22;38354;52.892;6.148;2022-07-29T15:59:36;26.20;91.00
52435;DHT22;38354;52.892;6.148;2022-07-29T16:02:02;26.30;91.10
52435;DHT22;38354;52.892;6.148;2022-07-29T16:04:28;26.30;91.30
52435;DHT22;38354;52.892;6.148;2022-07-29T16:06:54;26.20;91.20
52435;DHT22;38354;52.892;6.148;2022-07-29T16:09:20;26.20;91.10
52435;DHT22;38354;52.892;6.148;2022-07-29T16:11:46;26.10;91.40
52435;DHT22;38354;52.892;6.148;2022-07-29T16:14:53;26.10;91.60
52435;DHT22;38354;52.892;6.148;2022-07-29T16:28:33;26.00;91.70
52435;DHT22;38354;52.892;6.148;2022-07-29T16:30:59;26.00;91.70
52435;DHT22;38354;52.892;6.148;2022-07-29T16:33:24;25.90;91.70
52435;DHT22;38354;52.892;6.148;2022-07-29T16:35:51;26.00;92.20
52435;DHT22;38354;52.892;6.148;2022-07-29T16:38:17;26.00;91.90
52435;DHT22;38354;52.892;6.148;2022-07-29T17:22:12;25.20;90.70
52435;DHT22;38354;52.892;6.148;2022-07-29T17:25:19;25.10;90.30
52435;DHT22;38354;52.892;6.148;2022-07-29T17:27:48;25.00;90.00
52435;DHT22;38354;52.892;6.148;2022-07-29T17:30:17;25.00;90.60
52435;DHT22;38354;52.892;6.148;2022-07-29T18:08:38;24.30;93.80
52435;DHT22;38354;52.892;6.148;2022-07-29T18:11:05;24.30;93.80
52435;DHT22;38354;52.892;6.148;2022-07-29T18:13:31;24.30;94.00
52435;DHT22;38354;52.892;6.148;2022-07-29T18:15:58;24.30;94.00
52435;DHT22;38354;52.892;6.148;2022-07-29T18:21:03;24.20;94.50
52435;DHT22;38354;52.892;6.148;2022-07-29T18:31:00;24.00;95.60
52435;DHT22;38354;52.892;6.148;2022-07-29T18:33:34;23.90;96.00
52435;DHT22;38354;52.892;6.148;2022-07-29T18:36:25;23.90;96.80
52435;DHT22;38354;52.892;6.148;2022-07-29T18:39:46;23.80;96.90
52435;DHT22;38354;52.892;6.148;2022-07-29T18:46:33;23.50;97.60
52435;DHT22;38354;52.892;6.148;2022-07-29T18:58:56;23.00;99.90
52435;DHT22;38354;52.892;6.148;2022-07-29T19:01:35;22.80;99.90
52435;DHT22;38354;52.892;6.148;2022-07-29T19:04:03;22.70;99.90
52435;DHT22;38354;52.892;6.148;2022-07-29T19:10:13;22.70;99.90
52435;DHT22;38354;52.892;6.148;2022-07-29T19:12:53;22.60;99.90
52435;DHT22;38354;52.892;6.148;2022-07-29T19:35:34;22.00;99.90
52435;DHT22;38354;52.892;6.148;2022-07-29T19:46:24;21.70;99.90
52435;DHT22;38354;52.892;6.148;2022-07-29T19:49:01;21.60;99.90
52435;DHT22;38354;52.892;6.148;2022-07-29T19:51:35;21.50;99.90
52435;DHT22;38354;52.892;6.148;2022-07-29T19:54:27;21.40;99.90
52435;DHT22;38354;52.892;6.148;2022-07-29T20:01:09;21.30;99.90
52435;DHT22;38354;52.892;6.148;2022-07-29T20:03:36;21.10;99.90
52435;DHT22;38354;52.892;6.148;2022-07-29T20:06:04;21.10;99.90
52435;DHT22;38354;52.892;6.148;2022-07-29T20:08:29;21.10;99.90
52435;DHT22;38354;52.892;6.148;2022-07-29T20:10:55;21.00;99.90
52435;DHT22;38354;52.892;6.148;2022-07-29T20:13:27;21.00;99.90
52435;DHT22;38354;52.892;6.148;2022-07-29T20:15:52;20.90;99.90
52435;DHT22;38354;52.892;6.148;2022-07-29T20:18:18;20.80;99.90
52435;DHT22;38354;52.892;6.148;2022-07-29T20:20:50;20.80;99.90
52435;DHT22;38354;52.892;6.148;2022-07-29T20:23:29;20.70;99.90
52435;DHT22;38354;52.892;6.148;2022-07-29T20:25:54;20.60;99.90
52435;DHT22;38354;52.892;6.148;2022-07-29T20:28:20;20.60;99.90
52435;DHT22;38354;52.892;6.148;2022-07-29T20:33:41;20.40;99.90
52435;DHT22;38354;52.892;6.148;2022-07-29T20:39:09;20.40;99.90
52435;DHT22;38354;52.892;6.148;2022-07-29T20:41:35;20.30;99.90
52435;DHT22;38354;52.892;6.148;2022-07-29T20:44:01;20.20;99.90
52435;DHT22;38354;52.892;6.148;2022-07-29T20:46:27;20.10;99.90
52435;DHT22;38354;52.892;6.148;2022-07-29T20:48:53;20.00;99.90
52435;DHT22;38354;52.892;6.148;2022-07-29T20:51:19;20.00;99.90
52435;DHT22;38354;52.892;6.148;2022-07-29T20:53:45;19.90;99.90
52435;DHT22;38354;52.892;6.148;2022-07-29T20:56:11;19.80;99.90
52435;DHT22;38354;52.892;6.148;2022-07-29T20:58:37;19.80;99.90
52435;DHT22;38354;52.892;6.148;2022-07-29T21:01:04;19.80;99.90
52435;DHT22;38354;52.892;6.148;2022-07-29T21:03:30;19.70;99.90
52435;DHT22;38354;52.892;6.148;2022-07-29T21:05:57;19.70;99.90
52435;DHT22;38354;52.892;6.148;2022-07-29T21:08:24;19.70;99.90
52435;DHT22;38354;52.892;6.148;2022-07-29T21:10:50;19.60;99.90
52435;DHT22;38354;52.892;6.148;2022-07-29T21:13:17;19.50;99.90
52435;DHT22;38354;52.892;6.148;2022-07-29T21:15:48;19.40;99.90
52435;DHT22;38354;52.892;6.148;2022-07-29T21:18:16;19.30;99.90
52435;DHT22;38354;52.892;6.148;2022-07-29T21:21:03;19.20;99.90
52435;DHT22;38354;52.892;6.148;2022-07-29T21:23:29;19.20;99.90
52435;DHT22;38354;52.892;6.148;2022-07-29T21:25:56;19.10;99.90
52435;DHT22;38354;52.892;6.148;2022-07-29T21:28:22;19.10;99.90
52435;DHT22;38354;52.892;6.148;2022-07-29T21:30:58;19.10;99.90
52435;DHT22;38354;52.892;6.148;2022-07-29T21:33:29;19.00;99.90
52435;DHT22;38354;52.892;6.148;2022-07-29T21:35:55;19.00;99.90
52435;DHT22;38354;52.892;6.148;2022-07-29T21:38:21;19.00;99.90
52435;DHT22;38354;52.892;6.148;2022-07-29T21:40:51;19.00;99.90
52435;DHT22;38354;52.892;6.148;2022-07-29T21:43:18;18.90;99.90
52435;DHT22;38354;52.892;6.148;2022-07-29T21:45:47;19.00;99.90
52435;DHT22;38354;52.892;6.148;2022-07-29T21:48:17;18.90;99.90
52435;DHT22;38354;52.892;6.148;2022-07-29T21:50:43;18.80;99.90
52435;DHT22;38354;52.892;6.148;2022-07-29T21:53:09;18.80;99.90
52435;DHT22;38354;52.892;6.148;2022-07-29T21:55:35;18.80;99.90
52435;DHT22;38354;52.892;6.148;2022-07-29T21:58:01;18.70;99.90
52435;DHT22;38354;52.892;6.148;2022-07-29T22:00:28;18.60;99.90
52435;DHT22;38354;52.892;6.148;2022-07-29T22:02:55;18.60;99.90
52435;DHT22;38354;52.892;6.148;2022-07-29T22:05:21;18.60;99.90
52435;DHT22;38354;52.892;6.148;2022-07-29T22:07:47;18.60;99.90
52435;DHT22;38354;52.892;6.148;2022-07-29T22:10:14;18.60;99.90
52435;DHT22;38354;52.892;6.148;2022-07-29T22:12:43;18.60;99.90
52435;DHT22;38354;52.892;6.148;2022-07-29T22:15:09;18.50;99.90
52435;DHT22;38354;52.892;6.148;2022-07-29T22:17:56;18.50;99.90
52435;DHT22;38354;52.892;6.148;2022-07-29T22:27:45;18.40;99.90
52435;DHT22;38354;52.892;6.148;2022-07-29T22:33:22;18.10;99.90
52435;DHT22;38354;52.892;6.148;2022-07-29T22:35:48;18.00;99.90
52435;DHT22;38354;52.892;6.148;2022-07-29T22:38:14;18.00;99.90
52435;DHT22;38354;52.892;6.148;2022-07-29T22:40:40;17.90;99.90
52435;DHT22;38354;52.892;6.148;2022-07-29T22:43:11;18.00;99.90
52435;DHT22;38354;52.892;6.148;2022-07-29T22:48:35;17.90;99.90
